sensor_id;sensor_type;location;lat;lon;timestamp;P1;durP1;ratioP1;P2;durP2;ratioP2
8260;SDS011;64115;50.170;8.242;2023-12-20T00:01:59;0.60;;;0.60;;
8260;SDS011;64115;50.170;8.242;2023-12-20T00:04:27;0.70;;;0.70;;
8260;SDS011;64115;50.170;8.242;2023-12-20T00:06:54;0.50;;;0.50;;
8260;SDS011;64115;50.170;8.242;2023-12-20T00:09:21;0.60;;;0.60;;
8260;SDS011;64115;50.170;8.242;2023-12-20T00:11:49;0.40;;;0.40;;
8260;SDS011;64115;50.170;8.242;2023-12-20T00:14:15;0.43;;;0.43;;
8260;SDS011;64115;50.170;8.242;2023-12-20T00:16:42;0.50;;;0.50;;
8260;SDS011;64115;50.170;8.242;2023-12-20T00:19:09;0.50;;;0.50;;
8260;SDS011;64115;50.170;8.242;2023-12-20T00:21:35;0.40;;;0.40;;
8260;SDS011;64115;50.170;8.242;2023-12-20T00:24:03;3.07;;;0.40;;
8260;SDS011;64115;50.170;8.242;2023-12-20T00:26:30;0.50;;;0.40;;
8260;SDS011;64115;50.170;8.242;2023-12-20T00:28:58;0.40;;;0.40;;
8260;SDS011;64115;50.170;8.242;2023-12-20T00:31:25;0.30;;;0.30;;
8260;SDS011;64115;50.170;8.242;2023-12-20T00:33:52;0.57;;;0.57;;
8260;SDS011;64115;50.170;8.242;2023-12-20T00:36:19;0.73;;;0.60;;
8260;SDS011;64115;50.170;8.242;2023-12-20T00:38:47;0.30;;;0.30;;
8260;SDS011;64115;50.170;8.242;2023-12-20T00:41:15;1.00;;;0.60;;
8260;SDS011;64115;50.170;8.242;2023-12-20T00:43:41;1.17;;;0.50;;
8260;SDS011;64115;50.170;8.242;2023-12-20T00:46:10;0.93;;;0.37;;
8260;SDS011;64115;50.170;8.242;2023-12-20T00:48:37;1.10;;;0.40;;
8260;SDS011;64115;50.170;8.242;2023-12-20T00:51:07;0.60;;;0.60;;
8260;SDS011;64115;50.170;8.242;2023-12-20T00:53:33;0.30;;;0.30;;
8260;SDS011;64115;50.170;8.242;2023-12-20T00:56:00;0.80;;;0.40;;
8260;SDS011;64115;50.170;8.242;2023-12-20T00:58:27;0.47;;;0.47;;
8260;SDS011;64115;50.170;8.242;2023-12-20T01:00:54;0.37;;;0.37;;
8260;SDS011;64115;50.170;8.242;2023-12-20T01:03:22;1.17;;;0.50;;
8260;SDS011;64115;50.170;8.242;2023-12-20T01:05:48;0.40;;;0.40;;
8260;SDS011;64115;50.170;8.242;2023-12-20T01:08:15;0.50;;;0.50;;
8260;SDS011;64115;50.170;8.242;2023-12-20T01:10:42;0.53;;;0.53;;
8260;SDS011;64115;50.170;8.242;2023-12-20T01:13:08;0.50;;;0.50;;
8260;SDS011;64115;50.170;8.242;2023-12-20T01:15:35;2.10;;;0.60;;
8260;SDS011;64115;50.170;8.242;2023-12-20T01:18:02;0.47;;;0.47;;
8260;SDS011;64115;50.170;8.242;2023-12-20T01:20:30;0.50;;;0.50;;
8260;SDS011;64115;50.170;8.242;2023-12-20T01:22:57;0.70;;;0.70;;
8260;SDS011;64115;50.170;8.242;2023-12-20T01:25:24;0.57;;;0.57;;
8260;SDS011;64115;50.170;8.242;2023-12-20T01:27:51;2.43;;;0.70;;
8260;SDS011;64115;50.170;8.242;2023-12-20T01:30:17;0.40;;;0.40;;
8260;SDS011;64115;50.170;8.242;2023-12-20T01:32:44;0.60;;;0.60;;
8260;SDS011;64115;50.170;8.242;2023-12-20T01:35:11;0.60;;;0.60;;
8260;SDS011;64115;50.170;8.242;2023-12-20T01:37:39;1.07;;;0.80;;
8260;SDS011;64115;50.170;8.242;2023-12-20T01:40:06;0.57;;;0.57;;
8260;SDS011;64115;50.170;8.242;2023-12-20T01:42:34;0.70;;;0.70;;
8260;SDS011;64115;50.170;8.242;2023-12-20T01:45:01;0.73;;;0.70;;
8260;SDS011;64115;50.170;8.242;2023-12-20T01:47:27;0.70;;;0.70;;
8260;SDS011;64115;50.170;8.242;2023-12-20T01:49:54;0.80;;;0.80;;
8260;SDS011;64115;50.170;8.242;2023-12-20T01:52:22;1.13;;;0.80;;
8260;SDS011;64115;50.170;8.242;2023-12-20T01:54:50;1.23;;;1.10;;
8260;SDS011;64115;50.170;8.242;2023-12-20T01:57:19;1.00;;;1.00;;
8260;SDS011;64115;50.170;8.242;2023-12-20T01:59:46;0.90;;;0.90;;
8260;SDS011;64115;50.170;8.242;2023-12-20T02:02:13;1.47;;;1.40;;
8260;SDS011;64115;50.170;8.242;2023-12-20T02:04:40;0.90;;;0.90;;
8260;SDS011;64115;50.170;8.242;2023-12-20T02:07:08;1.00;;;1.00;;
8260;SDS011;64115;50.170;8.242;2023-12-20T02:09:36;1.00;;;1.00;;
8260;SDS011;64115;50.170;8.242;2023-12-20T02:12:04;1.13;;;1.13;;
8260;SDS011;64115;50.170;8.242;2023-12-20T02:14:31;0.97;;;0.97;;
8260;SDS011;64115;50.170;8.242;2023-12-20T02:16:58;1.30;;;1.20;;
8260;SDS011;64115;50.170;8.242;2023-12-20T02:19:25;1.00;;;1.00;;
8260;SDS011;64115;50.170;8.242;2023-12-20T02:22:05;3.33;;;1.20;;
8260;SDS011;64115;50.170;8.242;2023-12-20T02:24:33;1.03;;;1.00;;
8260;SDS011;64115;50.170;8.242;2023-12-20T02:26:59;1.30;;;1.30;;
8260;SDS011;64115;50.170;8.242;2023-12-20T02:29:26;1.20;;;1.20;;
8260;SDS011;64115;50.170;8.242;2023-12-20T02:31:53;1.20;;;1.00;;
8260;SDS011;64115;50.170;8.242;2023-12-20T02:34:20;1.30;;;1.30;;
8260;SDS011;64115;50.170;8.242;2023-12-20T02:36:46;1.50;;;1.40;;
8260;SDS011;64115;50.170;8.242;2023-12-20T02:39:14;1.63;;;1.30;;
8260;SDS011;64115;50.170;8.242;2023-12-20T02:41:41;1.20;;;1.20;;
8260;SDS011;64115;50.170;8.242;2023-12-20T02:44:08;1.33;;;1.33;;
8260;SDS011;64115;50.170;8.242;2023-12-20T02:46:35;1.53;;;1.50;;
8260;SDS011;64115;50.170;8.242;2023-12-20T02:49:02;1.50;;;1.40;;
8260;SDS011;64115;50.170;8.242;2023-12-20T02:51:28;1.90;;;1.80;;
8260;SDS011;64115;50.170;8.242;2023-12-20T02:53:55;2.10;;;2.00;;
8260;SDS011;64115;50.170;8.242;2023-12-20T02:56:23;2.07;;;1.97;;
8260;SDS011;64115;50.170;8.242;2023-12-20T02:58:50;2.13;;;2.03;;
8260;SDS011;64115;50.170;8.242;2023-12-20T03:01:16;1.97;;;1.77;;
8260;SDS011;64115;50.170;8.242;2023-12-20T03:03:44;1.80;;;1.70;;
8260;SDS011;64115;50.170;8.242;2023-12-20T03:06:10;2.00;;;1.63;;
8260;SDS011;64115;50.170;8.242;2023-12-20T03:08:37;2.10;;;1.80;;
8260;SDS011;64115;50.170;8.242;2023-12-20T03:11:06;1.60;;;1.50;;
8260;SDS011;64115;50.170;8.242;2023-12-20T03:13:34;1.80;;;1.70;;
8260;SDS011;64115;50.170;8.242;2023-12-20T03:16:00;1.70;;;1.60;;
8260;SDS011;64115;50.170;8.242;2023-12-20T03:18:27;1.80;;;1.70;;
8260;SDS011;64115;50.170;8.242;2023-12-20T03:20:54;1.70;;;1.60;;
8260;SDS011;64115;50.170;8.242;2023-12-20T03:23:20;3.40;;;1.60;;
8260;SDS011;64115;50.170;8.242;2023-12-20T03:25:47;1.23;;;1.13;;
8260;SDS011;64115;50.170;8.242;2023-12-20T03:28:14;1.47;;;1.37;;
8260;SDS011;64115;50.170;8.242;2023-12-20T03:30:43;1.80;;;1.63;;
8260;SDS011;64115;50.170;8.242;2023-12-20T03:33:09;2.30;;;1.50;;
8260;SDS011;64115;50.170;8.242;2023-12-20T03:35:36;1.17;;;1.17;;
8260;SDS011;64115;50.170;8.242;2023-12-20T03:38:03;1.30;;;1.30;;
8260;SDS011;64115;50.170;8.242;2023-12-20T03:40:30;1.30;;;1.30;;
8260;SDS011;64115;50.170;8.242;2023-12-20T03:42:56;1.80;;;1.57;;
8260;SDS011;64115;50.170;8.242;2023-12-20T03:45:23;1.67;;;1.57;;
8260;SDS011;64115;50.170;8.242;2023-12-20T03:47:51;1.47;;;1.43;;
8260;SDS011;64115;50.170;8.242;2023-12-20T03:50:20;1.53;;;1.43;;
8260;SDS011;64115;50.170;8.242;2023-12-20T03:52:47;1.43;;;1.43;;
8260;SDS011;64115;50.170;8.242;2023-12-20T03:55:14;1.30;;;1.30;;
8260;SDS011;64115;50.170;8.242;2023-12-20T03:57:41;1.63;;;1.57;;
8260;SDS011;64115;50.170;8.242;2023-12-20T04:00:09;1.63;;;1.53;;
8260;SDS011;64115;50.170;8.242;2023-12-20T04:02:36;2.30;;;2.20;;
8260;SDS011;64115;50.170;8.242;2023-12-20T04:05:05;3.00;;;2.37;;
8260;SDS011;64115;50.170;8.242;2023-12-20T04:07:32;2.50;;;2.40;;
8260;SDS011;64115;50.170;8.242;2023-12-20T04:09:59;3.43;;;3.13;;
8260;SDS011;64115;50.170;8.242;2023-12-20T04:12:27;4.03;;;3.60;;
8260;SDS011;64115;50.170;8.242;2023-12-20T04:14:54;4.30;;;3.90;;
8260;SDS011;64115;50.170;8.242;2023-12-20T04:17:20;4.57;;;3.90;;
8260;SDS011;64115;50.170;8.242;2023-12-20T04:19:47;5.20;;;4.47;;
8260;SDS011;64115;50.170;8.242;2023-12-20T04:22:16;5.10;;;4.33;;
8260;SDS011;64115;50.170;8.242;2023-12-20T04:24:43;4.97;;;4.53;;
8260;SDS011;64115;50.170;8.242;2023-12-20T04:27:10;4.83;;;4.33;;
8260;SDS011;64115;50.170;8.242;2023-12-20T04:29:37;5.03;;;4.50;;
8260;SDS011;64115;50.170;8.242;2023-12-20T04:32:04;4.60;;;4.07;;
8260;SDS011;64115;50.170;8.242;2023-12-20T04:34:31;5.53;;;4.10;;
8260;SDS011;64115;50.170;8.242;2023-12-20T04:36:58;5.57;;;3.97;;
8260;SDS011;64115;50.170;8.242;2023-12-20T04:39:28;6.77;;;4.07;;
8260;SDS011;64115;50.170;8.242;2023-12-20T04:41:55;3.83;;;3.50;;
8260;SDS011;64115;50.170;8.242;2023-12-20T04:44:22;5.33;;;3.47;;
8260;SDS011;64115;50.170;8.242;2023-12-20T04:46:49;5.37;;;2.90;;
8260;SDS011;64115;50.170;8.242;2023-12-20T04:49:15;3.53;;;3.23;;
8260;SDS011;64115;50.170;8.242;2023-12-20T04:51:42;5.90;;;3.07;;
8260;SDS011;64115;50.170;8.242;2023-12-20T04:54:09;6.00;;;3.00;;
8260;SDS011;64115;50.170;8.242;2023-12-20T04:56:38;4.07;;;2.93;;
8260;SDS011;64115;50.170;8.242;2023-12-20T04:59:04;5.73;;;2.60;;
8260;SDS011;64115;50.170;8.242;2023-12-20T05:01:31;9.30;;;2.60;;
8260;SDS011;64115;50.170;8.242;2023-12-20T05:03:58;4.43;;;2.60;;
8260;SDS011;64115;50.170;8.242;2023-12-20T05:06:25;7.20;;;2.53;;
8260;SDS011;64115;50.170;8.242;2023-12-20T05:08:52;6.77;;;2.57;;
8260;SDS011;64115;50.170;8.242;2023-12-20T05:11:18;7.80;;;2.50;;
8260;SDS011;64115;50.170;8.242;2023-12-20T05:13:47;5.47;;;2.30;;
8260;SDS011;64115;50.170;8.242;2023-12-20T05:16:13;5.73;;;2.00;;
8260;SDS011;64115;50.170;8.242;2023-12-20T05:18:42;6.57;;;2.13;;
8260;SDS011;64115;50.170;8.242;2023-12-20T05:21:09;7.10;;;2.00;;
8260;SDS011;64115;50.170;8.242;2023-12-20T05:23:36;5.57;;;1.80;;
8260;SDS011;64115;50.170;8.242;2023-12-20T05:26:03;5.70;;;1.87;;
8260;SDS011;64115;50.170;8.242;2023-12-20T05:28:29;6.90;;;1.80;;
8260;SDS011;64115;50.170;8.242;2023-12-20T05:30:57;5.93;;;1.87;;
8260;SDS011;64115;50.170;8.242;2023-12-20T05:33:24;3.17;;;1.47;;
8260;SDS011;64115;50.170;8.242;2023-12-20T05:35:51;3.57;;;1.60;;
8260;SDS011;64115;50.170;8.242;2023-12-20T05:38:18;3.87;;;1.67;;
8260;SDS011;64115;50.170;8.242;2023-12-20T05:40:44;7.07;;;1.57;;
8260;SDS011;64115;50.170;8.242;2023-12-20T05:43:11;4.17;;;1.27;;
8260;SDS011;64115;50.170;8.242;2023-12-20T05:45:38;6.80;;;1.90;;
8260;SDS011;64115;50.170;8.242;2023-12-20T05:48:07;4.03;;;1.70;;
8260;SDS011;64115;50.170;8.242;2023-12-20T05:50:33;5.90;;;1.80;;
8260;SDS011;64115;50.170;8.242;2023-12-20T05:53:00;4.57;;;1.83;;
8260;SDS011;64115;50.170;8.242;2023-12-20T05:55:27;5.30;;;1.80;;
8260;SDS011;64115;50.170;8.242;2023-12-20T05:57:54;5.93;;;1.87;;
8260;SDS011;64115;50.170;8.242;2023-12-20T06:00:20;3.80;;;1.60;;
8260;SDS011;64115;50.170;8.242;2023-12-20T06:02:47;4.33;;;2.07;;
8260;SDS011;64115;50.170;8.242;2023-12-20T06:05:15;2.97;;;1.70;;
8260;SDS011;64115;50.170;8.242;2023-12-20T06:07:42;3.90;;;1.70;;
8260;SDS011;64115;50.170;8.242;2023-12-20T06:10:10;6.90;;;1.87;;
8260;SDS011;64115;50.170;8.242;2023-12-20T06:12:36;5.10;;;2.40;;
8260;SDS011;64115;50.170;8.242;2023-12-20T06:15:03;7.40;;;2.53;;
8260;SDS011;64115;50.170;8.242;2023-12-20T06:17:31;5.77;;;2.20;;
8260;SDS011;64115;50.170;8.242;2023-12-20T06:20:01;7.43;;;2.30;;
8260;SDS011;64115;50.170;8.242;2023-12-20T06:22:33;5.90;;;2.30;;
8260;SDS011;64115;50.170;8.242;2023-12-20T06:25:00;6.70;;;2.07;;
8260;SDS011;64115;50.170;8.242;2023-12-20T06:27:27;3.67;;;2.10;;
8260;SDS011;64115;50.170;8.242;2023-12-20T06:29:54;6.23;;;2.30;;
8260;SDS011;64115;50.170;8.242;2023-12-20T06:32:21;3.70;;;2.17;;
8260;SDS011;64115;50.170;8.242;2023-12-20T06:34:49;6.50;;;2.27;;
8260;SDS011;64115;50.170;8.242;2023-12-20T06:37:16;3.63;;;2.00;;
8260;SDS011;64115;50.170;8.242;2023-12-20T06:39:44;3.40;;;2.17;;
8260;SDS011;64115;50.170;8.242;2023-12-20T06:42:11;5.70;;;2.20;;
8260;SDS011;64115;50.170;8.242;2023-12-20T06:44:38;6.57;;;2.40;;
8260;SDS011;64115;50.170;8.242;2023-12-20T06:47:05;3.70;;;2.27;;
8260;SDS011;64115;50.170;8.242;2023-12-20T06:49:31;7.07;;;2.67;;
8260;SDS011;64115;50.170;8.242;2023-12-20T06:51:58;4.27;;;2.30;;
8260;SDS011;64115;50.170;8.242;2023-12-20T06:54:25;6.77;;;2.70;;
8260;SDS011;64115;50.170;8.242;2023-12-20T06:56:53;7.77;;;2.43;;
8260;SDS011;64115;50.170;8.242;2023-12-20T06:59:20;6.90;;;2.50;;
8260;SDS011;64115;50.170;8.242;2023-12-20T07:01:47;6.17;;;1.93;;
8260;SDS011;64115;50.170;8.242;2023-12-20T07:04:14;5.60;;;2.50;;
8260;SDS011;64115;50.170;8.242;2023-12-20T07:06:41;4.43;;;2.30;;
8260;SDS011;64115;50.170;8.242;2023-12-20T07:09:08;2.93;;;2.23;;
8260;SDS011;64115;50.170;8.242;2023-12-20T07:11:35;5.30;;;1.87;;
8260;SDS011;64115;50.170;8.242;2023-12-20T07:14:03;6.70;;;1.93;;
8260;SDS011;64115;50.170;8.242;2023-12-20T07:16:30;4.03;;;2.00;;
8260;SDS011;64115;50.170;8.242;2023-12-20T07:18:57;4.67;;;1.70;;
8260;SDS011;64115;50.170;8.242;2023-12-20T07:21:24;5.23;;;2.00;;
8260;SDS011;64115;50.170;8.242;2023-12-20T07:23:50;7.67;;;2.00;;
8260;SDS011;64115;50.170;8.242;2023-12-20T07:26:17;3.63;;;1.80;;
8260;SDS011;64115;50.170;8.242;2023-12-20T07:28:44;5.13;;;1.93;;
8260;SDS011;64115;50.170;8.242;2023-12-20T07:31:12;6.10;;;2.13;;
8260;SDS011;64115;50.170;8.242;2023-12-20T07:33:41;3.87;;;1.90;;
8260;SDS011;64115;50.170;8.242;2023-12-20T07:36:08;5.50;;;2.33;;
8260;SDS011;64115;50.170;8.242;2023-12-20T07:38:34;6.17;;;2.20;;
8260;SDS011;64115;50.170;8.242;2023-12-20T07:41:01;4.83;;;1.97;;
8260;SDS011;64115;50.170;8.242;2023-12-20T07:43:28;4.40;;;2.00;;
8260;SDS011;64115;50.170;8.242;2023-12-20T07:45:55;7.33;;;1.90;;
8260;SDS011;64115;50.170;8.242;2023-12-20T07:48:23;7.53;;;2.37;;
8260;SDS011;64115;50.170;8.242;2023-12-20T07:50:50;4.27;;;1.77;;
8260;SDS011;64115;50.170;8.242;2023-12-20T07:53:18;6.37;;;2.13;;
8260;SDS011;64115;50.170;8.242;2023-12-20T07:55:44;6.93;;;1.93;;
8260;SDS011;64115;50.170;8.242;2023-12-20T07:58:11;5.57;;;1.60;;
8260;SDS011;64115;50.170;8.242;2023-12-20T08:00:38;5.33;;;1.80;;
8260;SDS011;64115;50.170;8.242;2023-12-20T08:03:05;3.17;;;1.67;;
8260;SDS011;64115;50.170;8.242;2023-12-20T08:05:33;4.93;;;1.90;;
8260;SDS011;64115;50.170;8.242;2023-12-20T08:08:00;7.63;;;2.00;;
8260;SDS011;64115;50.170;8.242;2023-12-20T08:10:26;4.37;;;1.87;;
8260;SDS011;64115;50.170;8.242;2023-12-20T08:12:54;8.40;;;2.10;;
8260;SDS011;64115;50.170;8.242;2023-12-20T08:15:21;5.80;;;1.87;;
8260;SDS011;64115;50.170;8.242;2023-12-20T08:17:48;6.40;;;2.20;;
8260;SDS011;64115;50.170;8.242;2023-12-20T08:20:15;5.93;;;1.80;;
8260;SDS011;64115;50.170;8.242;2023-12-20T08:22:44;9.17;;;2.07;;
8260;SDS011;64115;50.170;8.242;2023-12-20T08:25:10;6.67;;;2.40;;
8260;SDS011;64115;50.170;8.242;2023-12-20T08:27:39;5.33;;;2.00;;
8260;SDS011;64115;50.170;8.242;2023-12-20T08:30:07;4.50;;;1.70;;
8260;SDS011;64115;50.170;8.242;2023-12-20T08:32:35;3.17;;;1.80;;
8260;SDS011;64115;50.170;8.242;2023-12-20T08:35:02;6.93;;;1.80;;
8260;SDS011;64115;50.170;8.242;2023-12-20T08:37:29;11.10;;;2.33;;
8260;SDS011;64115;50.170;8.242;2023-12-20T08:39:57;7.07;;;1.80;;
8260;SDS011;64115;50.170;8.242;2023-12-20T08:42:24;5.27;;;2.00;;
8260;SDS011;64115;50.170;8.242;2023-12-20T08:44:56;7.37;;;2.03;;
8260;SDS011;64115;50.170;8.242;2023-12-20T08:47:23;3.27;;;2.10;;
8260;SDS011;64115;50.170;8.242;2023-12-20T08:49:50;10.20;;;2.50;;
8260;SDS011;64115;50.170;8.242;2023-12-20T08:52:18;8.37;;;2.00;;
8260;SDS011;64115;50.170;8.242;2023-12-20T08:54:45;10.20;;;2.03;;
8260;SDS011;64115;50.170;8.242;2023-12-20T08:57:13;6.60;;;2.13;;
8260;SDS011;64115;50.170;8.242;2023-12-20T08:59:40;3.73;;;1.73;;
8260;SDS011;64115;50.170;8.242;2023-12-20T09:02:06;6.50;;;2.10;;
8260;SDS011;64115;50.170;8.242;2023-12-20T09:04:33;7.37;;;2.00;;
8260;SDS011;64115;50.170;8.242;2023-12-20T09:07:00;4.47;;;1.87;;
8260;SDS011;64115;50.170;8.242;2023-12-20T09:09:27;4.70;;;2.00;;
8260;SDS011;64115;50.170;8.242;2023-12-20T09:11:54;5.80;;;2.10;;
8260;SDS011;64115;50.170;8.242;2023-12-20T09:14:22;6.23;;;2.17;;
8260;SDS011;64115;50.170;8.242;2023-12-20T09:16:49;10.83;;;2.20;;
8260;SDS011;64115;50.170;8.242;2023-12-20T09:19:16;5.40;;;2.20;;
8260;SDS011;64115;50.170;8.242;2023-12-20T09:21:43;7.43;;;2.20;;
8260;SDS011;64115;50.170;8.242;2023-12-20T09:24:09;5.63;;;2.30;;
8260;SDS011;64115;50.170;8.242;2023-12-20T09:26:36;7.13;;;2.30;;
8260;SDS011;64115;50.170;8.242;2023-12-20T09:29:04;6.40;;;2.20;;
8260;SDS011;64115;50.170;8.242;2023-12-20T09:31:34;4.30;;;2.10;;
8260;SDS011;64115;50.170;8.242;2023-12-20T09:34:03;6.23;;;2.50;;
8260;SDS011;64115;50.170;8.242;2023-12-20T09:36:30;4.97;;;2.03;;
8260;SDS011;64115;50.170;8.242;2023-12-20T09:39:01;5.20;;;2.50;;
8260;SDS011;64115;50.170;8.242;2023-12-20T09:41:28;6.67;;;2.03;;
8260;SDS011;64115;50.170;8.242;2023-12-20T09:44:00;4.60;;;2.27;;
8260;SDS011;64115;50.170;8.242;2023-12-20T09:46:29;5.37;;;2.17;;
8260;SDS011;64115;50.170;8.242;2023-12-20T09:49:01;5.80;;;2.27;;
8260;SDS011;64115;50.170;8.242;2023-12-20T09:51:28;7.23;;;2.60;;
8260;SDS011;64115;50.170;8.242;2023-12-20T09:53:56;6.80;;;2.57;;
8260;SDS011;64115;50.170;8.242;2023-12-20T09:56:24;5.27;;;2.57;;
8260;SDS011;64115;50.170;8.242;2023-12-20T09:58:52;8.03;;;2.60;;
8260;SDS011;64115;50.170;8.242;2023-12-20T10:01:19;5.17;;;2.40;;
8260;SDS011;64115;50.170;8.242;2023-12-20T10:03:48;8.20;;;2.70;;
8260;SDS011;64115;50.170;8.242;2023-12-20T10:06:19;8.57;;;2.50;;
8260;SDS011;64115;50.170;8.242;2023-12-20T10:08:47;5.60;;;2.40;;
8260;SDS011;64115;50.170;8.242;2023-12-20T10:11:13;4.50;;;2.20;;
8260;SDS011;64115;50.170;8.242;2023-12-20T10:13:40;5.67;;;2.40;;
8260;SDS011;64115;50.170;8.242;2023-12-20T10:16:07;4.90;;;2.13;;
8260;SDS011;64115;50.170;8.242;2023-12-20T10:18:34;7.00;;;2.23;;
8260;SDS011;64115;50.170;8.242;2023-12-20T10:21:03;6.00;;;2.20;;
8260;SDS011;64115;50.170;8.242;2023-12-20T10:23:30;8.43;;;2.60;;
8260;SDS011;64115;50.170;8.242;2023-12-20T10:25:57;2.33;;;1.90;;
8260;SDS011;64115;50.170;8.242;2023-12-20T10:28:24;4.17;;;2.03;;
8260;SDS011;64115;50.170;8.242;2023-12-20T10:30:52;5.73;;;2.20;;
8260;SDS011;64115;50.170;8.242;2023-12-20T10:33:23;6.13;;;2.20;;
8260;SDS011;64115;50.170;8.242;2023-12-20T10:35:51;4.93;;;2.30;;
8260;SDS011;64115;50.170;8.242;2023-12-20T10:38:20;7.57;;;2.40;;
8260;SDS011;64115;50.170;8.242;2023-12-20T10:40:47;7.17;;;2.30;;
8260;SDS011;64115;50.170;8.242;2023-12-20T10:43:14;4.87;;;2.73;;
8260;SDS011;64115;50.170;8.242;2023-12-20T10:45:41;6.33;;;2.17;;
8260;SDS011;64115;50.170;8.242;2023-12-20T10:48:09;6.60;;;2.43;;
8260;SDS011;64115;50.170;8.242;2023-12-20T10:50:37;4.93;;;2.17;;
8260;SDS011;64115;50.170;8.242;2023-12-20T10:53:05;4.47;;;2.07;;
8260;SDS011;64115;50.170;8.242;2023-12-20T10:55:34;6.90;;;2.40;;
8260;SDS011;64115;50.170;8.242;2023-12-20T10:58:01;5.53;;;1.77;;
8260;SDS011;64115;50.170;8.242;2023-12-20T11:00:32;5.87;;;1.90;;
8260;SDS011;64115;50.170;8.242;2023-12-20T11:03:01;7.43;;;2.37;;
8260;SDS011;64115;50.170;8.242;2023-12-20T11:05:32;5.90;;;2.10;;
8260;SDS011;64115;50.170;8.242;2023-12-20T11:08:04;6.17;;;2.23;;
8260;SDS011;64115;50.170;8.242;2023-12-20T11:10:38;4.50;;;2.03;;
8260;SDS011;64115;50.170;8.242;2023-12-20T11:13:16;5.93;;;1.93;;
8260;SDS011;64115;50.170;8.242;2023-12-20T11:15:46;5.57;;;2.27;;
8260;SDS011;64115;50.170;8.242;2023-12-20T11:18:13;3.87;;;1.60;;
8260;SDS011;64115;50.170;8.242;2023-12-20T11:20:41;4.20;;;2.03;;
8260;SDS011;64115;50.170;8.242;2023-12-20T11:23:08;6.83;;;2.50;;
8260;SDS011;64115;50.170;8.242;2023-12-20T11:25:48;3.63;;;1.67;;
8260;SDS011;64115;50.170;8.242;2023-12-20T11:28:20;7.10;;;2.27;;
8260;SDS011;64115;50.170;8.242;2023-12-20T11:30:48;6.43;;;2.00;;
8260;SDS011;64115;50.170;8.242;2023-12-20T11:33:17;6.33;;;1.93;;
8260;SDS011;64115;50.170;8.242;2023-12-20T11:35:48;6.33;;;2.00;;
8260;SDS011;64115;50.170;8.242;2023-12-20T11:38:15;4.27;;;1.70;;
8260;SDS011;64115;50.170;8.242;2023-12-20T11:40:42;7.17;;;2.30;;
8260;SDS011;64115;50.170;8.242;2023-12-20T11:43:10;3.97;;;1.60;;
8260;SDS011;64115;50.170;8.242;2023-12-20T11:45:38;4.10;;;1.57;;
8260;SDS011;64115;50.170;8.242;2023-12-20T11:48:16;5.40;;;2.30;;
8260;SDS011;64115;50.170;8.242;2023-12-20T11:50:44;5.67;;;1.93;;
8260;SDS011;64115;50.170;8.242;2023-12-20T11:53:11;7.67;;;2.00;;
8260;SDS011;64115;50.170;8.242;2023-12-20T11:55:38;7.17;;;2.20;;
8260;SDS011;64115;50.170;8.242;2023-12-20T11:58:05;4.80;;;1.73;;
8260;SDS011;64115;50.170;8.242;2023-12-20T12:00:35;4.00;;;1.77;;
8260;SDS011;64115;50.170;8.242;2023-12-20T12:03:02;5.57;;;1.87;;
8260;SDS011;64115;50.170;8.242;2023-12-20T12:05:30;4.00;;;2.00;;
8260;SDS011;64115;50.170;8.242;2023-12-20T12:07:58;4.00;;;1.70;;
8260;SDS011;64115;50.170;8.242;2023-12-20T12:10:27;5.63;;;1.90;;
8260;SDS011;64115;50.170;8.242;2023-12-20T12:12:53;5.37;;;1.90;;
8260;SDS011;64115;50.170;8.242;2023-12-20T12:15:20;3.30;;;1.50;;
8260;SDS011;64115;50.170;8.242;2023-12-20T12:17:53;3.47;;;1.57;;
8260;SDS011;64115;50.170;8.242;2023-12-20T12:20:21;4.50;;;1.47;;
8260;SDS011;64115;50.170;8.242;2023-12-20T12:22:56;3.03;;;1.40;;
8260;SDS011;64115;50.170;8.242;2023-12-20T12:25:24;5.40;;;1.60;;
8260;SDS011;64115;50.170;8.242;2023-12-20T12:27:51;3.47;;;1.60;;
8260;SDS011;64115;50.170;8.242;2023-12-20T12:30:18;5.07;;;1.60;;
8260;SDS011;64115;50.170;8.242;2023-12-20T12:32:45;2.27;;;1.50;;
8260;SDS011;64115;50.170;8.242;2023-12-20T12:35:13;3.77;;;1.80;;
8260;SDS011;64115;50.170;8.242;2023-12-20T12:37:40;3.30;;;1.70;;
8260;SDS011;64115;50.170;8.242;2023-12-20T12:40:09;3.53;;;1.70;;
8260;SDS011;64115;50.170;8.242;2023-12-20T12:42:37;3.90;;;1.80;;
8260;SDS011;64115;50.170;8.242;2023-12-20T12:45:04;6.80;;;1.90;;
8260;SDS011;64115;50.170;8.242;2023-12-20T12:47:32;6.40;;;2.20;;
8260;SDS011;64115;50.170;8.242;2023-12-20T12:49:59;6.40;;;1.90;;
8260;SDS011;64115;50.170;8.242;2023-12-20T12:52:27;2.53;;;1.70;;
8260;SDS011;64115;50.170;8.242;2023-12-20T12:54:54;6.27;;;2.13;;
8260;SDS011;64115;50.170;8.242;2023-12-20T12:57:21;3.57;;;1.87;;
8260;SDS011;64115;50.170;8.242;2023-12-20T12:59:47;3.87;;;1.90;;
8260;SDS011;64115;50.170;8.242;2023-12-20T13:02:15;7.10;;;2.07;;
8260;SDS011;64115;50.170;8.242;2023-12-20T13:04:42;4.60;;;2.30;;
8260;SDS011;64115;50.170;8.242;2023-12-20T13:07:09;7.10;;;2.40;;
8260;SDS011;64115;50.170;8.242;2023-12-20T13:09:38;2.67;;;1.90;;
8260;SDS011;64115;50.170;8.242;2023-12-20T13:12:05;4.27;;;2.30;;
8260;SDS011;64115;50.170;8.242;2023-12-20T13:14:33;7.90;;;2.40;;
8260;SDS011;64115;50.170;8.242;2023-12-20T13:17:02;4.63;;;2.40;;
8260;SDS011;64115;50.170;8.242;2023-12-20T13:19:29;5.60;;;2.27;;
8260;SDS011;64115;50.170;8.242;2023-12-20T13:21:56;5.23;;;2.07;;
8260;SDS011;64115;50.170;8.242;2023-12-20T13:24:23;5.10;;;2.20;;
8260;SDS011;64115;50.170;8.242;2023-12-20T13:26:51;4.47;;;2.10;;
8260;SDS011;64115;50.170;8.242;2023-12-20T13:29:18;4.57;;;2.00;;
8260;SDS011;64115;50.170;8.242;2023-12-20T13:31:45;4.47;;;2.07;;
8260;SDS011;64115;50.170;8.242;2023-12-20T13:34:11;4.97;;;2.20;;
8260;SDS011;64115;50.170;8.242;2023-12-20T13:36:38;7.53;;;2.37;;
8260;SDS011;64115;50.170;8.242;2023-12-20T13:39:05;4.77;;;2.07;;
8260;SDS011;64115;50.170;8.242;2023-12-20T13:41:32;4.27;;;2.20;;
8260;SDS011;64115;50.170;8.242;2023-12-20T13:44:01;6.63;;;2.40;;
8260;SDS011;64115;50.170;8.242;2023-12-20T13:46:28;3.10;;;1.93;;
8260;SDS011;64115;50.170;8.242;2023-12-20T13:48:55;4.10;;;1.77;;
8260;SDS011;64115;50.170;8.242;2023-12-20T13:51:21;3.17;;;1.73;;
8260;SDS011;64115;50.170;8.242;2023-12-20T13:53:48;6.97;;;2.20;;
8260;SDS011;64115;50.170;8.242;2023-12-20T13:56:15;6.93;;;2.20;;
8260;SDS011;64115;50.170;8.242;2023-12-20T13:58:43;4.23;;;2.07;;
8260;SDS011;64115;50.170;8.242;2023-12-20T14:01:12;4.43;;;2.10;;
8260;SDS011;64115;50.170;8.242;2023-12-20T14:03:39;6.17;;;2.10;;
8260;SDS011;64115;50.170;8.242;2023-12-20T14:06:06;4.93;;;2.20;;
8260;SDS011;64115;50.170;8.242;2023-12-20T14:08:33;3.97;;;2.00;;
8260;SDS011;64115;50.170;8.242;2023-12-20T14:11:01;4.63;;;2.00;;
8260;SDS011;64115;50.170;8.242;2023-12-20T14:13:27;4.27;;;1.90;;
8260;SDS011;64115;50.170;8.242;2023-12-20T14:15:54;3.53;;;1.90;;
8260;SDS011;64115;50.170;8.242;2023-12-20T14:18:22;4.80;;;1.80;;
8260;SDS011;64115;50.170;8.242;2023-12-20T14:20:49;3.77;;;1.60;;
8260;SDS011;64115;50.170;8.242;2023-12-20T14:23:16;3.77;;;1.53;;
8260;SDS011;64115;50.170;8.242;2023-12-20T14:25:43;5.67;;;1.50;;
8260;SDS011;64115;50.170;8.242;2023-12-20T14:28:10;3.43;;;1.53;;
8260;SDS011;64115;50.170;8.242;2023-12-20T14:30:39;3.40;;;1.53;;
8260;SDS011;64115;50.170;8.242;2023-12-20T14:33:06;2.87;;;1.40;;
8260;SDS011;64115;50.170;8.242;2023-12-20T14:35:34;3.90;;;1.63;;
8260;SDS011;64115;50.170;8.242;2023-12-20T14:38:01;2.80;;;1.50;;
8260;SDS011;64115;50.170;8.242;2023-12-20T14:40:28;4.33;;;1.97;;
8260;SDS011;64115;50.170;8.242;2023-12-20T14:42:55;5.37;;;1.80;;
8260;SDS011;64115;50.170;8.242;2023-12-20T14:45:21;3.70;;;1.63;;
8260;SDS011;64115;50.170;8.242;2023-12-20T14:47:48;5.60;;;1.63;;
8260;SDS011;64115;50.170;8.242;2023-12-20T14:50:15;3.93;;;1.70;;
8260;SDS011;64115;50.170;8.242;2023-12-20T14:52:45;2.70;;;1.30;;
8260;SDS011;64115;50.170;8.242;2023-12-20T14:55:12;3.63;;;1.50;;
8260;SDS011;64115;50.170;8.242;2023-12-20T14:57:39;2.17;;;1.50;;
8260;SDS011;64115;50.170;8.242;2023-12-20T15:00:06;5.70;;;1.90;;
8260;SDS011;64115;50.170;8.242;2023-12-20T15:02:34;2.70;;;1.60;;